sensor_id;sensor_type;location;lat;lon;timestamp;P1;durP1;ratioP1;P2;durP2;ratioP2
3745;SDS011;1888;49.890;10.884;2022-07-29T04:48:46;11.60;;;11.40;;
3745;SDS011;1888;49.890;10.884;2022-07-29T04:51:14;11.23;;;11.03;;
3745;SDS011;1888;49.890;10.884;2022-07-29T04:53:41;11.20;;;11.00;;
3745;SDS011;1888;49.890;10.884;2022-07-29T04:56:08;11.97;;;11.77;;
3745;SDS011;1888;49.890;10.884;2022-07-29T04:58:35;11.70;;;11.50;;
3745;SDS011;1888;49.890;10.884;2022-07-29T05:01:02;11.57;;;11.37;;
3745;SDS011;1888;49.890;10.884;2022-07-29T05:03:30;11.67;;;11.47;;
3745;SDS011;1888;49.890;10.884;2022-07-29T05:06:01;11.73;;;11.53;;
3745;SDS011;1888;49.890;10.884;2022-07-29T05:08:28;11.37;;;11.17;;
3745;SDS011;1888;49.890;10.884;2022-07-29T05:10:55;11.17;;;10.97;;
3745;SDS011;1888;49.890;10.884;2022-07-29T05:13:22;11.30;;;11.10;;
3745;SDS011;1888;49.890;10.884;2022-07-29T05:15:50;11.20;;;11.00;;
3745;SDS011;1888;49.890;10.884;2022-07-29T05:18:17;11.27;;;11.07;;
3745;SDS011;1888;49.890;10.884;2022-07-29T05:20:44;10.80;;;10.60;;
3745;SDS011;1888;49.890;10.884;2022-07-29T05:23:13;10.93;;;10.73;;
3745;SDS011;1888;49.890;10.884;2022-07-29T05:25:40;10.77;;;10.57;;
3745;SDS011;1888;49.890;10.884;2022-07-29T05:28:08;11.30;;;11.10;;
3745;SDS011;1888;49.890;10.884;2022-07-29T05:30:35;10.97;;;10.77;;
3745;SDS011;1888;49.890;10.884;2022-07-29T05:33:04;11.53;;;11.33;;
3745;SDS011;1888;49.890;10.884;2022-07-29T05:35:31;10.87;;;10.67;;
3745;SDS011;1888;49.890;10.884;2022-07-29T05:38:00;11.27;;;11.07;;
3745;SDS011;1888;49.890;10.884;2022-07-29T05:40:28;11.10;;;10.90;;
3745;SDS011;1888;49.890;10.884;2022-07-29T05:42:55;10.93;;;10.73;;
3745;SDS011;1888;49.890;10.884;2022-07-29T05:45:23;10.90;;;10.70;;
3745;SDS011;1888;49.890;10.884;2022-07-29T05:47:52;10.90;;;10.70;;
3745;SDS011;1888;49.890;10.884;2022-07-29T05:50:19;11.20;;;11.00;;
3745;SDS011;1888;49.890;10.884;2022-07-29T05:52:46;11.13;;;10.93;;
3745;SDS011;1888;49.890;10.884;2022-07-29T05:55:13;10.90;;;10.70;;
3745;SDS011;1888;49.890;10.884;2022-07-29T05:57:42;10.70;;;10.50;;
3745;SDS011;1888;49.890;10.884;2022-07-29T06:00:10;11.30;;;11.10;;
3745;SDS011;1888;49.890;10.884;2022-07-29T06:02:38;11.00;;;10.80;;
3745;SDS011;1888;49.890;10.884;2022-07-29T06:05:05;10.87;;;10.67;;
3745;SDS011;1888;49.890;10.884;2022-07-29T06:07:33;10.80;;;10.60;;
3745;SDS011;1888;49.890;10.884;2022-07-29T06:10:00;10.90;;;10.70;;
3745;SDS011;1888;49.890;10.884;2022-07-29T06:12:27;10.90;;;10.70;;
3745;SDS011;1888;49.890;10.884;2022-07-29T06:14:55;11.00;;;10.80;;
3745;SDS011;1888;49.890;10.884;2022-07-29T06:17:22;11.13;;;10.93;;
3745;SDS011;1888;49.890;10.884;2022-07-29T06:19:50;11.20;;;11.00;;
3745;SDS011;1888;49.890;10.884;2022-07-29T06:22:17;10.83;;;10.63;;
3745;SDS011;1888;49.890;10.884;2022-07-29T06:24:44;11.10;;;10.90;;
3745;SDS011;1888;49.890;10.884;2022-07-29T06:27:11;11.20;;;11.00;;
3745;SDS011;1888;49.890;10.884;2022-07-29T06:29:40;11.40;;;11.20;;
3745;SDS011;1888;49.890;10.884;2022-07-29T06:32:08;10.90;;;10.70;;
3745;SDS011;1888;49.890;10.884;2022-07-29T06:34:36;10.75;;;10.55;;
3745;SDS011;1888;49.890;10.884;2022-07-29T06:37:05;11.13;;;10.93;;
3745;SDS011;1888;49.890;10.884;2022-07-29T06:39:33;10.87;;;10.67;;
3745;SDS011;1888;49.890;10.884;2022-07-29T06:42:01;11.00;;;10.80;;
3745;SDS011;1888;49.890;10.884;2022-07-29T06:44:29;10.57;;;10.37;;
3745;SDS011;1888;49.890;10.884;2022-07-29T06:46:56;10.93;;;10.73;;
3745;SDS011;1888;49.890;10.884;2022-07-29T06:49:26;11.00;;;10.80;;
3745;SDS011;1888;49.890;10.884;2022-07-29T06:51:53;10.53;;;10.33;;
3745;SDS011;1888;49.890;10.884;2022-07-29T06:54:20;10.80;;;10.60;;
3745;SDS011;1888;49.890;10.884;2022-07-29T06:56:47;10.67;;;10.47;;
3745;SDS011;1888;49.890;10.884;2022-07-29T06:59:15;11.20;;;11.00;;
3745;SDS011;1888;49.890;10.884;2022-07-29T07:01:42;10.60;;;10.40;;
3745;SDS011;1888;49.890;10.884;2022-07-29T07:04:09;10.93;;;10.73;;
3745;SDS011;1888;49.890;10.884;2022-07-29T07:06:38;10.80;;;10.60;;
3745;SDS011;1888;49.890;10.884;2022-07-29T07:09:06;11.20;;;11.00;;
3745;SDS011;1888;49.890;10.884;2022-07-29T07:11:34;10.90;;;10.70;;
3745;SDS011;1888;49.890;10.884;2022-07-29T07:14:01;11.03;;;10.83;;
3745;SDS011;1888;49.890;10.884;2022-07-29T07:16:29;10.37;;;10.20;;
3745;SDS011;1888;49.890;10.884;2022-07-29T07:18:56;10.60;;;10.40;;
3745;SDS011;1888;49.890;10.884;2022-07-29T07:21:23;10.70;;;10.50;;
3745;SDS011;1888;49.890;10.884;2022-07-29T07:23:53;11.00;;;10.80;;
3745;SDS011;1888;49.890;10.884;2022-07-29T07:26:20;10.83;;;10.63;;
3745;SDS011;1888;49.890;10.884;2022-07-29T07:28:48;10.97;;;10.77;;
3745;SDS011;1888;49.890;10.884;2022-07-29T07:31:17;11.10;;;10.90;;
3745;SDS011;1888;49.890;10.884;2022-07-29T07:33:44;10.87;;;10.67;;
3745;SDS011;1888;49.890;10.884;2022-07-29T07:36:11;11.00;;;10.80;;
3745;SDS011;1888;49.890;10.884;2022-07-29T07:38:38;10.80;;;10.60;;
3745;SDS011;1888;49.890;10.884;2022-07-29T07:41:09;10.80;;;10.60;;
3745;SDS011;1888;49.890;10.884;2022-07-29T07:43:36;10.97;;;10.77;;
3745;SDS011;1888;49.890;10.884;2022-07-29T07:46:05;11.10;;;10.90;;
3745;SDS011;1888;49.890;10.884;2022-07-29T07:48:33;10.30;;;10.20;;
3745;SDS011;1888;49.890;10.884;2022-07-29T07:51:02;10.33;;;10.23;;
3745;SDS011;1888;49.890;10.884;2022-07-29T07:53:29;10.80;;;10.60;;
3745;SDS011;1888;49.890;10.884;2022-07-29T07:55:56;11.03;;;10.83;;
3745;SDS011;1888;49.890;10.884;2022-07-29T07:58:24;10.70;;;10.50;;
3745;SDS011;1888;49.890;10.884;2022-07-29T08:00:52;11.10;;;10.90;;
3745;SDS011;1888;49.890;10.884;2022-07-29T08:03:19;10.37;;;10.27;;
3745;SDS011;1888;49.890;10.884;2022-07-29T08:05:46;10.57;;;10.37;;
3745;SDS011;1888;49.890;10.884;2022-07-29T08:08:15;10.73;;;10.53;;
3745;SDS011;1888;49.890;10.884;2022-07-29T08:10:42;11.17;;;10.97;;
3745;SDS011;1888;49.890;10.884;2022-07-29T08:13:21;11.03;;;10.83;;
3745;SDS011;1888;49.890;10.884;2022-07-29T08:15:49;11.30;;;11.10;;
3745;SDS011;1888;49.890;10.884;2022-07-29T08:18:22;11.03;;;10.83;;
3745;SDS011;1888;49.890;10.884;2022-07-29T08:20:49;11.13;;;10.93;;
3745;SDS011;1888;49.890;10.884;2022-07-29T08:23:17;10.90;;;10.70;;
3745;SDS011;1888;49.890;10.884;2022-07-29T08:25:44;11.20;;;11.00;;
3745;SDS011;1888;49.890;10.884;2022-07-29T08:28:11;11.00;;;10.80;;
3745;SDS011;1888;49.890;10.884;2022-07-29T08:30:39;10.57;;;10.37;;
3745;SDS011;1888;49.890;10.884;2022-07-29T08:33:07;10.90;;;10.70;;
3745;SDS011;1888;49.890;10.884;2022-07-29T08:35:34;10.80;;;10.60;;
3745;SDS011;1888;49.890;10.884;2022-07-29T08:38:02;11.00;;;10.80;;
3745;SDS011;1888;49.890;10.884;2022-07-29T08:40:29;11.03;;;10.83;;
3745;SDS011;1888;49.890;10.884;2022-07-29T08:42:56;10.37;;;10.27;;
3745;SDS011;1888;49.890;10.884;2022-07-29T08:45:23;11.20;;;11.00;;
3745;SDS011;1888;49.890;10.884;2022-07-29T08:47:51;10.37;;;10.27;;
3745;SDS011;1888;49.890;10.884;2022-07-29T08:50:20;10.90;;;10.70;;
3745;SDS011;1888;49.890;10.884;2022-07-29T08:52:48;10.93;;;10.73;;
3745;SDS011;1888;49.890;10.884;2022-07-29T08:55:16;10.90;;;10.70;;
3745;SDS011;1888;49.890;10.884;2022-07-29T08:57:43;10.90;;;10.70;;
3745;SDS011;1888;49.890;10.884;2022-07-29T09:00:11;10.80;;;10.60;;
3745;SDS011;1888;49.890;10.884;2022-07-29T09:02:39;10.43;;;10.30;;
3745;SDS011;1888;49.890;10.884;2022-07-29T09:05:07;10.53;;;10.33;;
3745;SDS011;1888;49.890;10.884;2022-07-29T09:07:37;10.53;;;10.33;;
3745;SDS011;1888;49.890;10.884;2022-07-29T09:10:07;11.03;;;10.83;;
3745;SDS011;1888;49.890;10.884;2022-07-29T09:12:34;11.10;;;10.90;;
3745;SDS011;1888;49.890;10.884;2022-07-29T09:15:05;11.20;;;11.00;;
3745;SDS011;1888;49.890;10.884;2022-07-29T09:17:39;10.97;;;10.77;;
3745;SDS011;1888;49.890;10.884;2022-07-29T09:20:08;10.33;;;10.23;;
3745;SDS011;1888;49.890;10.884;2022-07-29T09:22:36;10.83;;;10.63;;
3745;SDS011;1888;49.890;10.884;2022-07-29T09:25:07;11.00;;;10.80;;
3745;SDS011;1888;49.890;10.884;2022-07-29T09:27:34;10.90;;;10.70;;
3745;SDS011;1888;49.890;10.884;2022-07-29T09:30:05;11.10;;;10.90;;
3745;SDS011;1888;49.890;10.884;2022-07-29T09:35:21;10.90;;;10.70;;
3745;SDS011;1888;49.890;10.884;2022-07-29T09:37:54;11.20;;;11.00;;
3745;SDS011;1888;49.890;10.884;2022-07-29T09:40:22;11.00;;;10.80;;
3745;SDS011;1888;49.890;10.884;2022-07-29T09:42:50;10.90;;;10.70;;
3745;SDS011;1888;49.890;10.884;2022-07-29T09:45:26;11.00;;;10.80;;
3745;SDS011;1888;49.890;10.884;2022-07-29T09:47:53;10.90;;;10.70;;
3745;SDS011;1888;49.890;10.884;2022-07-29T09:50:34;10.93;;;10.73;;
3745;SDS011;1888;49.890;10.884;2022-07-29T09:53:02;10.90;;;10.70;;
3745;SDS011;1888;49.890;10.884;2022-07-29T09:55:29;11.10;;;10.90;;
3745;SDS011;1888;49.890;10.884;2022-07-29T10:00:41;10.90;;;10.70;;
3745;SDS011;1888;49.890;10.884;2022-07-29T10:03:08;11.20;;;11.00;;
3745;SDS011;1888;49.890;10.884;2022-07-29T10:05:36;11.02;;;10.82;;
3745;SDS011;1888;49.890;10.884;2022-07-29T10:08:06;10.40;;;10.30;;
3745;SDS011;1888;49.890;10.884;2022-07-29T10:10:38;11.10;;;10.90;;
3745;SDS011;1888;49.890;10.884;2022-07-29T10:13:09;11.00;;;10.80;;
3745;SDS011;1888;49.890;10.884;2022-07-29T10:15:37;10.90;;;10.70;;
3745;SDS011;1888;49.890;10.884;2022-07-29T10:18:06;11.20;;;11.00;;
3745;SDS011;1888;49.890;10.884;2022-07-29T10:20:33;11.07;;;10.88;;
3745;SDS011;1888;49.890;10.884;2022-07-29T10:23:01;11.40;;;11.20;;
3745;SDS011;1888;49.890;10.884;2022-07-29T10:25:29;11.10;;;10.90;;
3745;SDS011;1888;49.890;10.884;2022-07-29T10:27:57;10.90;;;10.70;;
3745;SDS011;1888;49.890;10.884;2022-07-29T10:30:24;11.37;;;11.17;;
3745;SDS011;1888;49.890;10.884;2022-07-29T10:32:58;11.53;;;11.33;;
3745;SDS011;1888;49.890;10.884;2022-07-29T10:35:34;11.20;;;11.00;;
3745;SDS011;1888;49.890;10.884;2022-07-29T10:38:13;11.30;;;11.10;;
3745;SDS011;1888;49.890;10.884;2022-07-29T10:40:48;11.00;;;10.80;;
3745;SDS011;1888;49.890;10.884;2022-07-29T10:43:35;11.20;;;11.00;;
3745;SDS011;1888;49.890;10.884;2022-07-29T10:46:03;11.60;;;11.40;;
3745;SDS011;1888;49.890;10.884;2022-07-29T10:48:31;11.57;;;11.37;;
3745;SDS011;1888;49.890;10.884;2022-07-29T10:50:58;11.07;;;10.87;;
3745;SDS011;1888;49.890;10.884;2022-07-29T10:56:20;11.37;;;11.17;;
3745;SDS011;1888;49.890;10.884;2022-07-29T10:58:57;11.00;;;10.80;;
3745;SDS011;1888;49.890;10.884;2022-07-29T11:01:45;11.40;;;11.20;;
3745;SDS011;1888;49.890;10.884;2022-07-29T11:04:12;11.23;;;11.03;;
3745;SDS011;1888;49.890;10.884;2022-07-29T11:09:25;10.80;;;10.60;;
3745;SDS011;1888;49.890;10.884;2022-07-29T11:11:54;10.87;;;10.67;;
3745;SDS011;1888;49.890;10.884;2022-07-29T11:17:03;11.00;;;10.80;;
3745;SDS011;1888;49.890;10.884;2022-07-29T11:19:33;10.63;;;10.43;;
3745;SDS011;1888;49.890;10.884;2022-07-29T11:22:01;10.93;;;10.73;;
3745;SDS011;1888;49.890;10.884;2022-07-29T11:24:29;10.47;;;10.37;;
3745;SDS011;1888;49.890;10.884;2022-07-29T11:27:11;10.90;;;10.70;;
3745;SDS011;1888;49.890;10.884;2022-07-29T11:29:39;10.63;;;10.43;;
3745;SDS011;1888;49.890;10.884;2022-07-29T11:32:10;10.40;;;10.30;;
3745;SDS011;1888;49.890;10.884;2022-07-29T11:34:39;11.10;;;10.90;;
3745;SDS011;1888;49.890;10.884;2022-07-29T11:37:19;11.00;;;10.80;;
3745;SDS011;1888;49.890;10.884;2022-07-29T11:40:08;10.80;;;10.60;;
3745;SDS011;1888;49.890;10.884;2022-07-29T11:42:43;10.90;;;10.70;;
3745;SDS011;1888;49.890;10.884;2022-07-29T11:45:11;10.90;;;10.70;;
3745;SDS011;1888;49.890;10.884;2022-07-29T11:47:41;10.83;;;10.63;;
3745;SDS011;1888;49.890;10.884;2022-07-29T11:50:09;11.00;;;10.80;;
3745;SDS011;1888;49.890;10.884;2022-07-29T11:52:37;10.87;;;10.67;;
3745;SDS011;1888;49.890;10.884;2022-07-29T11:55:08;10.60;;;10.40;;
3745;SDS011;1888;49.890;10.884;2022-07-29T11:57:36;9.93;;;9.83;;
3745;SDS011;1888;49.890;10.884;2022-07-29T12:00:09;10.73;;;10.53;;
3745;SDS011;1888;49.890;10.884;2022-07-29T12:02:40;10.40;;;10.30;;
3745;SDS011;1888;49.890;10.884;2022-07-29T12:05:12;10.93;;;10.73;;
3745;SDS011;1888;49.890;10.884;2022-07-29T12:07:42;10.63;;;10.43;;
3745;SDS011;1888;49.890;10.884;2022-07-29T12:10:09;10.63;;;10.43;;
3745;SDS011;1888;49.890;10.884;2022-07-29T12:12:37;9.97;;;9.87;;
3745;SDS011;1888;49.890;10.884;2022-07-29T12:15:13;10.83;;;10.63;;
3745;SDS011;1888;49.890;10.884;2022-07-29T12:17:42;10.60;;;10.40;;
3745;SDS011;1888;49.890;10.884;2022-07-29T12:20:09;10.30;;;10.20;;
3745;SDS011;1888;49.890;10.884;2022-07-29T12:22:39;10.83;;;10.63;;
3745;SDS011;1888;49.890;10.884;2022-07-29T12:25:09;10.90;;;10.70;;
3745;SDS011;1888;49.890;10.884;2022-07-29T12:27:36;10.43;;;10.30;;
3745;SDS011;1888;49.890;10.884;2022-07-29T12:30:04;10.90;;;10.70;;
3745;SDS011;1888;49.890;10.884;2022-07-29T12:32:34;11.20;;;11.00;;
3745;SDS011;1888;49.890;10.884;2022-07-29T12:35:03;11.00;;;10.80;;
3745;SDS011;1888;49.890;10.884;2022-07-29T12:37:30;10.75;;;10.55;;
3745;SDS011;1888;49.890;10.884;2022-07-29T12:39:58;10.90;;;10.70;;
3745;SDS011;1888;49.890;10.884;2022-07-29T12:42:25;10.67;;;10.47;;
3745;SDS011;1888;49.890;10.884;2022-07-29T12:44:52;11.20;;;11.00;;
3745;SDS011;1888;49.890;10.884;2022-07-29T12:47:22;11.20;;;11.00;;
3745;SDS011;1888;49.890;10.884;2022-07-29T12:50:06;11.40;;;11.20;;
3745;SDS011;1888;49.890;10.884;2022-07-29T12:52:34;10.90;;;10.70;;
3745;SDS011;1888;49.890;10.884;2022-07-29T12:55:01;11.10;;;10.90;;
3745;SDS011;1888;49.890;10.884;2022-07-29T12:57:29;11.20;;;11.00;;
3745;SDS011;1888;49.890;10.884;2022-07-29T13:00:01;11.30;;;11.10;;
3745;SDS011;1888;49.890;10.884;2022-07-29T13:02:28;10.80;;;10.60;;
3745;SDS011;1888;49.890;10.884;2022-07-29T13:04:57;11.20;;;11.00;;
3745;SDS011;1888;49.890;10.884;2022-07-29T13:07:25;11.30;;;11.10;;
3745;SDS011;1888;49.890;10.884;2022-07-29T13:09:52;11.20;;;11.00;;
3745;SDS011;1888;49.890;10.884;2022-07-29T13:12:20;11.40;;;11.20;;
3745;SDS011;1888;49.890;10.884;2022-07-29T13:14:47;10.60;;;10.40;;
3745;SDS011;1888;49.890;10.884;2022-07-29T13:17:15;11.23;;;11.03;;
3745;SDS011;1888;49.890;10.884;2022-07-29T13:19:43;11.40;;;11.20;;
3745;SDS011;1888;49.890;10.884;2022-07-29T13:22:14;11.20;;;11.00;;
3745;SDS011;1888;49.890;10.884;2022-07-29T13:24:45;11.00;;;10.80;;
3745;SDS011;1888;49.890;10.884;2022-07-29T13:27:14;11.00;;;10.80;;
3745;SDS011;1888;49.890;10.884;2022-07-29T13:29:42;10.77;;;10.57;;
3745;SDS011;1888;49.890;10.884;2022-07-29T13:32:09;10.90;;;10.70;;
3745;SDS011;1888;49.890;10.884;2022-07-29T13:34:36;11.20;;;11.00;;
3745;SDS011;1888;49.890;10.884;2022-07-29T13:37:03;11.00;;;10.80;;
3745;SDS011;1888;49.890;10.884;2022-07-29T13:39:32;10.80;;;10.60;;
3745;SDS011;1888;49.890;10.884;2022-07-29T13:42:02;11.40;;;11.20;;
3745;SDS011;1888;49.890;10.884;2022-07-29T13:44:29;11.20;;;11.00;;
3745;SDS011;1888;49.890;10.884;2022-07-29T13:46:56;11.10;;;10.90;;
3745;SDS011;1888;49.890;10.884;2022-07-29T13:49:26;11.33;;;11.13;;
3745;SDS011;1888;49.890;10.884;2022-07-29T13:51:53;11.20;;;11.00;;
3745;SDS011;1888;49.890;10.884;2022-07-29T13:54:20;11.50;;;11.30;;
3745;SDS011;1888;49.890;10.884;2022-07-29T13:56:49;11.50;;;11.30;;
3745;SDS011;1888;49.890;10.884;2022-07-29T13:59:16;11.10;;;10.90;;
3745;SDS011;1888;49.890;10.884;2022-07-29T14:01:43;11.37;;;11.17;;
3745;SDS011;1888;49.890;10.884;2022-07-29T14:04:10;11.20;;;11.00;;
3745;SDS011;1888;49.890;10.884;2022-07-29T14:06:38;10.90;;;10.70;;
3745;SDS011;1888;49.890;10.884;2022-07-29T14:09:05;10.77;;;10.57;;
3745;SDS011;1888;49.890;10.884;2022-07-29T14:11:33;10.90;;;10.70;;
3745;SDS011;1888;49.890;10.884;2022-07-29T14:14:02;11.37;;;11.17;;
3745;SDS011;1888;49.890;10.884;2022-07-29T14:16:29;11.13;;;10.93;;
3745;SDS011;1888;49.890;10.884;2022-07-29T14:18:56;11.07;;;10.87;;
3745;SDS011;1888;49.890;10.884;2022-07-29T14:21:24;11.03;;;10.83;;
3745;SDS011;1888;49.890;10.884;2022-07-29T14:23:51;11.37;;;11.17;;
3745;SDS011;1888;49.890;10.884;2022-07-29T14:26:19;11.47;;;11.27;;
3745;SDS011;1888;49.890;10.884;2022-07-29T14:28:47;11.17;;;10.97;;
3745;SDS011;1888;49.890;10.884;2022-07-29T14:31:17;11.03;;;10.83;;
3745;SDS011;1888;49.890;10.884;2022-07-29T14:33:45;11.63;;;11.43;;
3745;SDS011;1888;49.890;10.884;2022-07-29T14:36:12;11.40;;;11.20;;
3745;SDS011;1888;49.890;10.884;2022-07-29T14:38:39;11.50;;;11.30;;
3745;SDS011;1888;49.890;10.884;2022-07-29T14:41:08;10.97;;;10.77;;
3745;SDS011;1888;49.890;10.884;2022-07-29T14:43:35;11.40;;;11.20;;
3745;SDS011;1888;49.890;10.884;2022-07-29T14:46:02;11.40;;;11.20;;
3745;SDS011;1888;49.890;10.884;2022-07-29T14:48:31;11.23;;;11.03;;
3745;SDS011;1888;49.890;10.884;2022-07-29T14:50:58;11.47;;;11.27;;
3745;SDS011;1888;49.890;10.884;2022-07-29T14:53:27;11.00;;;10.80;;
3745;SDS011;1888;49.890;10.884;2022-07-29T14:55:54;11.27;;;11.07;;
3745;SDS011;1888;49.890;10.884;2022-07-29T14:58:21;11.30;;;11.10;;
3745;SDS011;1888;49.890;10.884;2022-07-29T15:00:49;11.67;;;11.47;;
3745;SDS011;1888;49.890;10.884;2022-07-29T15:03:16;11.90;;;11.70;;
3745;SDS011;1888;49.890;10.884;2022-07-29T15:05:44;11.60;;;11.40;;
3745;SDS011;1888;49.890;10.884;2022-07-29T15:08:11;11.60;;;11.40;;
3745;SDS011;1888;49.890;10.884;2022-07-29T15:10:38;10.80;;;10.60;;
3745;SDS011;1888;49.890;10.884;2022-07-29T15:13:06;11.53;;;11.33;;
3745;SDS011;1888;49.890;10.884;2022-07-29T15:15:33;11.40;;;11.20;;
3745;SDS011;1888;49.890;10.884;2022-07-29T15:18:00;11.70;;;11.50;;
3745;SDS011;1888;49.890;10.884;2022-07-29T15:20:27;11.40;;;11.20;;
3745;SDS011;1888;49.890;10.884;2022-07-29T15:22:56;11.07;;;10.87;;
3745;SDS011;1888;49.890;10.884;2022-07-29T15:25:23;11.50;;;11.30;;
3745;SDS011;1888;49.890;10.884;2022-07-29T15:27:51;10.60;;;10.40;;
3745;SDS011;1888;49.890;10.884;2022-07-29T15:30:18;11.00;;;10.80;;
3745;SDS011;1888;49.890;10.884;2022-07-29T15:32:45;10.70;;;10.50;;
3745;SDS011;1888;49.890;10.884;2022-07-29T15:35:12;10.37;;;10.27;;
3745;SDS011;1888;49.890;10.884;2022-07-29T15:37:39;10.20;;;10.10;;
3745;SDS011;1888;49.890;10.884;2022-07-29T15:40:08;9.80;;;9.70;;
3745;SDS011;1888;49.890;10.884;2022-07-29T15:42:36;9.63;;;9.53;;
3745;SDS011;1888;49.890;10.884;2022-07-29T15:45:03;11.93;;;11.73;;
3745;SDS011;1888;49.890;10.884;2022-07-29T15:47:30;15.23;;;14.83;;
3745;SDS011;1888;49.890;10.884;2022-07-29T15:49:58;22.57;;;21.07;;
3745;SDS011;1888;49.890;10.884;2022-07-29T15:52:36;21.20;;;20.10;;
3745;SDS011;1888;49.890;10.884;2022-07-29T15:55:04;18.30;;;17.50;;
3745;SDS011;1888;49.890;10.884;2022-07-29T15:57:32;13.20;;;12.80;;
3745;SDS011;1888;49.890;10.884;2022-07-29T16:00:02;10.23;;;10.03;;
3745;SDS011;1888;49.890;10.884;2022-07-29T16:02:30;9.13;;;9.03;;
3745;SDS011;1888;49.890;10.884;2022-07-29T16:04:57;8.10;;;8.00;;
3745;SDS011;1888;49.890;10.884;2022-07-29T16:07:24;7.50;;;7.40;;
3745;SDS011;1888;49.890;10.884;2022-07-29T16:09:51;6.80;;;6.70;;
3745;SDS011;1888;49.890;10.884;2022-07-29T16:12:18;6.20;;;6.10;;
3745;SDS011;1888;49.890;10.884;2022-07-29T16:14:47;6.10;;;6.00;;
3745;SDS011;1888;49.890;10.884;2022-07-29T16:17:15;5.83;;;5.83;;
3745;SDS011;1888;49.890;10.884;2022-07-29T16:19:42;5.80;;;5.80;;
3745;SDS011;1888;49.890;10.884;2022-07-29T16:22:09;5.50;;;5.50;;
3745;SDS011;1888;49.890;10.884;2022-07-29T16:24:36;5.50;;;5.50;;
3745;SDS011;1888;49.890;10.884;2022-07-29T16:27:03;5.77;;;5.77;;
3745;SDS011;1888;49.890;10.884;2022-07-29T16:29:30;6.23;;;6.13;;
3745;SDS011;1888;49.890;10.884;2022-07-29T16:31:59;6.20;;;6.10;;
3745;SDS011;1888;49.890;10.884;2022-07-29T16:34:26;6.73;;;6.63;;
3745;SDS011;1888;49.890;10.884;2022-07-29T16:36:53;7.20;;;7.10;;
3745;SDS011;1888;49.890;10.884;2022-07-29T16:39:20;7.90;;;7.80;;
3745;SDS011;1888;49.890;10.884;2022-07-29T16:41:47;7.10;;;7.00;;
3745;SDS011;1888;49.890;10.884;2022-07-29T16:44:14;6.70;;;6.60;;
3745;SDS011;1888;49.890;10.884;2022-07-29T16:46:42;6.50;;;6.40;;
3745;SDS011;1888;49.890;10.884;2022-07-29T16:49:11;6.97;;;6.87;;
3745;SDS011;1888;49.890;10.884;2022-07-29T16:51:38;6.50;;;6.40;;
3745;SDS011;1888;49.890;10.884;2022-07-29T16:54:05;6.70;;;6.60;;
3745;SDS011;1888;49.890;10.884;2022-07-29T16:56:34;5.87;;;5.87;;
3745;SDS011;1888;49.890;10.884;2022-07-29T16:59:02;5.60;;;5.60;;
3745;SDS011;1888;49.890;10.884;2022-07-29T17:01:29;5.53;;;5.53;;
3745;SDS011;1888;49.890;10.884;2022-07-29T17:03:56;5.70;;;5.70;;
3745;SDS011;1888;49.890;10.884;2022-07-29T17:06:34;5.80;;;5.80;;
3745;SDS011;1888;49.890;10.884;2022-07-29T17:09:01;5.60;;;5.60;;
3745;SDS011;1888;49.890;10.884;2022-07-29T17:11:29;5.47;;;5.47;;
3745;SDS011;1888;49.890;10.884;2022-07-29T17:13:56;5.40;;;5.40;;
3745;SDS011;1888;49.890;10.884;2022-07-29T17:16:23;5.30;;;5.30;;
3745;SDS011;1888;49.890;10.884;2022-07-29T17:18:51;5.27;;;5.27;;
3745;SDS011;1888;49.890;10.884;2022-07-29T17:21:18;5.13;;;5.13;;
3745;SDS011;1888;49.890;10.884;2022-07-29T17:23:47;4.60;;;4.60;;
3745;SDS011;1888;49.890;10.884;2022-07-29T17:26:15;4.37;;;4.37;;
3745;SDS011;1888;49.890;10.884;2022-07-29T17:28:42;5.17;;;5.17;;
3745;SDS011;1888;49.890;10.884;2022-07-29T17:31:12;4.93;;;4.93;;
3745;SDS011;1888;49.890;10.884;2022-07-29T17:33:39;4.80;;;4.80;;
3745;SDS011;1888;49.890;10.884;2022-07-29T17:36:06;4.10;;;4.10;;
3745;SDS011;1888;49.890;10.884;2022-07-29T17:38:50;4.47;;;4.47;;
3745;SDS011;1888;49.890;10.884;2022-07-29T17:41:17;3.80;;;3.80;;
3745;SDS011;1888;49.890;10.884;2022-07-29T17:43:45;4.00;;;4.00;;
3745;SDS011;1888;49.890;10.884;2022-07-29T17:46:12;3.87;;;3.87;;
3745;SDS011;1888;49.890;10.884;2022-07-29T17:48:39;3.83;;;3.83;;
3745;SDS011;1888;49.890;10.884;2022-07-29T17:51:07;4.00;;;4.00;;
3745;SDS011;1888;49.890;10.884;2022-07-29T17:53:34;4.60;;;4.60;;
3745;SDS011;1888;49.890;10.884;2022-07-29T17:56:03;4.27;;;4.27;;
3745;SDS011;1888;49.890;10.884;2022-07-29T17:58:30;4.20;;;4.20;;
3745;SDS011;1888;49.890;10.884;2022-07-29T18:00:57;3.80;;;3.80;;
3745;SDS011;1888;49.890;10.884;2022-07-29T18:03:25;3.80;;;3.80;;
3745;SDS011;1888;49.890;10.884;2022-07-29T18:05:52;4.00;;;4.00;;
3745;SDS011;1888;49.890;10.884;2022-07-29T18:08:19;4.10;;;4.10;;
3745;SDS011;1888;49.890;10.884;2022-07-29T18:10:46;3.93;;;3.93;;
3745;SDS011;1888;49.890;10.884;2022-07-29T18:13:14;4.00;;;4.00;;
3745;SDS011;1888;49.890;10.884;2022-07-29T18:15:42;3.53;;;3.53;;
3745;SDS011;1888;49.890;10.884;2022-07-29T18:18:13;3.53;;;3.53;;
3745;SDS011;1888;49.890;10.884;2022-07-29T18:20:40;3.40;;;3.40;;
3745;SDS011;1888;49.890;10.884;2022-07-29T18:23:07;3.43;;;3.43;;
3745;SDS011;1888;49.890;10.884;2022-07-29T18:25:35;3.93;;;3.93;;
3745;SDS011;1888;49.890;10.884;2022-07-29T18:28:03;4.40;;;4.40;;
3745;SDS011;1888;49.890;10.884;2022-07-29T18:30:32;4.90;;;4.90;;
3745;SDS011;1888;49.890;10.884;2022-07-29T18:33:00;4.47;;;4.47;;
3745;SDS011;1888;49.890;10.884;2022-07-29T18:35:28;4.43;;;4.43;;
3745;SDS011;1888;49.890;10.884;2022-07-29T18:37:55;4.33;;;4.33;;
3745;SDS011;1888;49.890;10.884;2022-07-29T18:40:22;4.67;;;4.67;;
3745;SDS011;1888;49.890;10.884;2022-07-29T18:42:49;4.80;;;4.80;;
3745;SDS011;1888;49.890;10.884;2022-07-29T18:45:17;4.50;;;4.50;;
3745;SDS011;1888;49.890;10.884;2022-07-29T18:47:45;5.20;;;5.20;;
3745;SDS011;1888;49.890;10.884;2022-07-29T18:50:13;5.17;;;5.17;;
3745;SDS011;1888;49.890;10.884;2022-07-29T18:52:40;5.13;;;5.13;;
3745;SDS011;1888;49.890;10.884;2022-07-29T18:55:10;5.37;;;5.37;;
3745;SDS011;1888;49.890;10.884;2022-07-29T18:57:37;5.60;;;5.60;;
3745;SDS011;1888;49.890;10.884;2022-07-29T19:00:05;6.30;;;6.20;;
3745;SDS011;1888;49.890;10.884;2022-07-29T19:02:33;6.10;;;6.00;;
3745;SDS011;1888;49.890;10.884;2022-07-29T19:05:03;6.67;;;6.57;;
3745;SDS011;1888;49.890;10.884;2022-07-29T19:07:40;6.70;;;6.60;;
3745;SDS011;1888;49.890;10.884;2022-07-29T19:10:07;6.43;;;6.33;;
3745;SDS011;1888;49.890;10.884;2022-07-29T19:12:35;6.70;;;6.60;;
3745;SDS011;1888;49.890;10.884;2022-07-29T19:15:02;6.83;;;6.73;;
3745;SDS011;1888;49.890;10.884;2022-07-29T19:17:29;6.30;;;6.20;;
3745;SDS011;1888;49.890;10.884;2022-07-29T19:19:56;5.30;;;5.30;;
3745;SDS011;1888;49.890;10.884;2022-07-29T19:22:25;5.47;;;5.47;;
3745;SDS011;1888;49.890;10.884;2022-07-29T19:24:52;4.83;;;4.83;;
3745;SDS011;1888;49.890;10.884;2022-07-29T19:27:19;4.77;;;4.77;;
3745;SDS011;1888;49.890;10.884;2022-07-29T19:29:47;4.40;;;4.40;;
3745;SDS011;1888;49.890;10.884;2022-07-29T19:32:14;4.70;;;4.70;;
3745;SDS011;1888;49.890;10.884;2022-07-29T19:34:41;4.90;;;4.90;;
3745;SDS011;1888;49.890;10.884;2022-07-29T19:37:32;4.90;;;4.90;;
3745;SDS011;1888;49.890;10.884;2022-07-29T19:39:59;4.50;;;4.50;;
3745;SDS011;1888;49.890;10.884;2022-07-29T19:42:26;4.57;;;4.57;;
3745;SDS011;1888;49.890;10.884;2022-07-29T19:44:54;4.47;;;4.47;;
3745;SDS011;1888;49.890;10.884;2022-07-29T19:47:21;4.50;;;4.50;;
3745;SDS011;1888;49.890;10.884;2022-07-29T19:49:48;4.20;;;4.20;;